Time;durP1;ratioP1;P1;durP2;ratioP2;P2;SDS_P1;SDS_P2;PMS_P1;PMS_P2;Temp;Humidity;BMP_temperature;BMP_pressure;BME280_temperature;BME280_humidity;BME280_pressure;Samples;Min_cycle;Max_cycle;Signal;HPM_P1;HPM_P2
2022/04/25 00:00:24;;;;;;;23.52;17.08;;;;;;;12.34;100.00;98401.75;4954084;28;20197;-75
2022/04/25 00:02:51;;;;;;;21.65;15.98;;;;;;;12.25;100.00;98406.09;4953401;28;20195;-75
2022/04/25 00:05:18;;;;;;;23.88;17.45;;;;;;;12.32;100.00;98412.69;4954034;28;20186;-74
2022/04/25 00:07:45;;;;;;;21.23;17.00;;;;;;;12.30;100.00;98414.63;4953541;28;20189;-74
2022/04/25 00:10:13;;;;;;;21.58;16.88;;;;;;;12.47;100.00;98416.78;4954036;28;20715;-75
2022/04/25 00:12:41;;;;;;;22.63;17.58;;;;;;;12.52;100.00;98419.09;4953870;28;20188;-76
2022/04/25 00:15:08;;;;;;;20.60;17.13;;;;;;;12.46;100.00;98416.94;4953260;28;20190;-75
2022/04/25 00:17:35;;;;;;;23.98;17.50;;;;;;;12.25;100.00;98424.97;4953699;28;20236;-75
2022/04/25 00:20:02;;;;;;;22.45;17.40;;;;;;;12.05;100.00;98422.13;4954162;28;20188;-75
2022/04/25 00:22:31;;;;;;;20.23;16.73;;;;;;;11.93;100.00;98425.81;4954055;28;20640;-74
2022/04/25 00:24:58;;;;;;;24.75;17.80;;;;;;;11.98;100.00;98426.28;4953932;28;20688;-75
2022/04/25 00:27:28;;;;;;;24.17;18.02;;;;;;;12.17;100.00;98427.47;4954103;28;20217;-75
2022/04/25 00:29:56;;;;;;;21.70;16.13;;;;;;;12.06;100.00;98428.34;4953934;28;20205;-74
2022/04/25 00:32:23;;;;;;;21.60;17.10;;;;;;;12.23;100.00;98425.13;4953990;28;20644;-75
2022/04/25 00:34:50;;;;;;;24.08;18.48;;;;;;;12.14;100.00;98415.06;4953498;28;20204;-75
2022/04/25 00:37:17;;;;;;;24.02;17.92;;;;;;;12.24;100.00;98413.34;4952988;28;20199;-75
2022/04/25 00:39:43;;;;;;;22.98;17.73;;;;;;;12.33;100.00;98410.84;4954971;28;20204;-74
2022/04/25 00:42:10;;;;;;;25.75;18.77;;;;;;;12.35;100.00;98407.03;4958165;28;20547;-75
2022/04/25 00:44:37;;;;;;;21.70;17.85;;;;;;;12.58;100.00;98413.19;4958079;28;20663;-76
2022/04/25 00:47:06;;;;;;;20.02;16.48;;;;;;;12.75;100.00;98405.47;4957224;28;20671;-75
2022/04/25 00:49:33;;;;;;;21.20;16.77;;;;;;;12.66;100.00;98399.88;4957750;28;20637;-74
2022/04/25 00:51:59;;;;;;;22.33;17.67;;;;;;;12.55;100.00;98408.06;4957717;28;20551;-75
2022/04/25 00:54:26;;;;;;;21.77;17.77;;;;;;;12.55;100.00;98399.06;4957414;28;20550;-75
2022/04/25 00:56:52;;;;;;;23.83;17.88;;;;;;;12.48;100.00;98393.34;4957626;28;20675;-75
2022/04/25 00:59:21;;;;;;;18.85;15.35;;;;;;;12.44;100.00;98389.22;4957208;28;20198;-74
2022/04/25 01:01:51;;;;;;;20.35;16.77;;;;;;;12.39;100.00;98372.53;4957250;28;20216;-76
2022/04/25 01:04:20;;;;;;;23.70;18.30;;;;;;;12.29;100.00;98359.81;4957580;28;20209;-76
2022/04/25 01:06:48;;;;;;;21.70;17.45;;;;;;;12.22;100.00;98357.78;4957558;28;20211;-75
2022/04/25 01:09:14;;;;;;;22.75;17.33;;;;;;;12.03;100.00;98367.44;4957515;28;20221;-75
2022/04/25 01:11:41;;;;;;;24.45;19.95;;;;;;;12.04;100.00;98384.47;4957553;28;20185;-75
2022/04/25 01:14:12;;;;;;;23.02;18.40;;;;;;;11.88;100.00;98377.63;4956711;28;20203;-75
2022/04/25 01:16:39;;;;;;;24.30;18.02;;;;;;;11.73;100.00;98372.63;4956968;28;20292;-75
2022/04/25 01:19:05;;;;;;;22.35;16.45;;;;;;;11.72;100.00;98371.78;4956982;28;20189;-75
2022/04/25 01:21:39;;;;;;;23.33;18.35;;;;;;;11.83;100.00;98371.75;4957219;28;20222;-74
2022/04/25 01:29:37;;;;;;;22.50;17.20;;;;;;;12.21;100.00;98373.13;4937860;29;20197;-75
2022/04/25 01:32:05;;;;;;;22.23;18.45;;;;;;;12.36;100.00;98375.50;4937955;29;20205;-75
2022/04/25 01:34:36;;;;;;;23.75;17.98;;;;;;;12.23;100.00;98376.56;4937854;29;20617;-75
2022/04/25 01:37:06;;;;;;;24.05;17.92;;;;;;;12.33;100.00;98381.16;4937562;29;20193;-75
2022/04/25 01:39:37;;;;;;;24.60;19.45;;;;;;;12.21;100.00;98377.63;4937656;29;20249;-74
2022/04/25 01:42:04;;;;;;;24.33;18.95;;;;;;;12.29;100.00;98370.63;4940972;29;20189;-75
2022/04/25 01:44:31;;;;;;;23.67;18.80;;;;;;;12.44;100.00;98368.47;4956448;28;20235;-75
2022/04/25 01:46:58;;;;;;;21.92;16.80;;;;;;;12.41;100.00;98378.66;4956143;28;20196;-75
2022/04/25 01:49:25;;;;;;;20.25;17.23;;;;;;;12.38;100.00;98368.97;4937230;29;20212;-75
2022/04/25 01:51:52;;;;;;;22.98;17.98;;;;;;;12.15;100.00;98373.63;4937432;29;20194;-75
2022/04/25 01:54:25;;;;;;;26.23;19.77;;;;;;;11.82;100.00;98378.09;4937566;29;20652;-75
2022/04/25 01:56:53;;;;;;;23.90;18.05;;;;;;;12.07;100.00;98379.69;4937051;29;20200;-75
2022/04/25 01:59:20;;;;;;;22.27;18.02;;;;;;;12.00;100.00;98385.69;4949493;29;20636;-75
2022/04/25 02:01:47;;;;;;;25.20;19.42;;;;;;;12.06;100.00;98379.81;4954992;29;20213;-75
2022/04/25 02:04:13;;;;;;;22.80;18.40;;;;;;;12.10;100.00;98381.25;4956372;28;20208;-75
2022/04/25 02:06:40;;;;;;;23.95;19.38;;;;;;;11.87;100.00;98378.63;4955982;28;20208;-75
2022/04/25 02:09:08;;;;;;;23.83;18.92;;;;;;;11.87;100.00;98377.72;4956518;28;20550;-75
2022/04/25 02:11:34;;;;;;;22.77;18.27;;;;;;;11.78;100.00;98376.66;4956319;28;20206;-74
2022/04/25 02:14:03;;;;;;;26.33;18.80;;;;;;;11.78;100.00;98371.28;4956323;28;20184;-74
2022/04/25 02:16:29;;;;;;;23.45;18.73;;;;;;;11.79;100.00;98372.97;4955595;28;20232;-76
2022/04/25 02:18:56;;;;;;;29.42;19.85;;;;;;;11.83;100.00;98381.69;4956036;28;20542;-74
2022/04/25 02:21:23;;;;;;;23.00;18.40;;;;;;;11.85;100.00;98383.28;4956153;28;20559;-74
2022/04/25 02:23:50;;;;;;;23.88;19.20;;;;;;;11.78;100.00;98378.50;4956137;28;20208;-74
2022/04/25 02:26:16;;;;;;;24.42;19.02;;;;;;;11.74;100.00;98372.50;4956164;28;20183;-76
2022/04/25 02:28:43;;;;;;;30.10;21.27;;;;;;;11.69;100.00;98380.97;4955679;28;20205;-75
2022/04/25 02:31:11;;;;;;;23.77;18.50;;;;;;;11.47;100.00;98392.66;4955213;28;20204;-75
2022/04/25 02:33:38;;;;;;;28.63;20.25;;;;;;;11.53;100.00;98395.81;4955592;28;20195;-75
2022/04/25 02:36:05;;;;;;;25.42;19.23;;;;;;;11.72;100.00;98390.66;4955389;28;20207;-76
2022/04/25 02:38:33;;;;;;;24.08;19.20;;;;;;;11.76;100.00;98393.94;4955943;28;20195;-76
2022/04/25 02:41:06;;;;;;;22.02;17.52;;;;;;;11.82;100.00;98390.75;4955835;28;20288;-76
2022/04/25 02:43:34;;;;;;;22.08;19.10;;;;;;;11.74;100.00;98402.16;4955791;28;20212;-76
2022/04/25 02:46:02;;;;;;;25.70;18.63;;;;;;;11.87;100.00;98397.53;4955078;28;20197;-76
2022/04/25 02:48:30;;;;;;;22.77;18.58;;;;;;;12.05;100.00;98394.25;4936578;29;20187;-76
2022/04/25 02:50:57;;;;;;;22.70;18.00;;;;;;;12.10;100.00;98400.16;4936348;29;20337;-75
2022/04/25 02:53:25;;;;;;;23.17;17.45;;;;;;;12.16;100.00;98398.75;4936570;29;20189;-74
2022/04/25 02:55:52;;;;;;;22.15;17.20;;;;;;;12.21;100.00;98400.09;4936536;29;21052;-74
2022/04/25 02:58:19;;;;;;;21.83;17.33;;;;;;;12.20;100.00;98395.69;4936478;29;20197;-75
2022/04/25 03:00:45;;;;;;;21.60;17.60;;;;;;;12.27;100.00;98393.31;4942439;29;20196;-75
2022/04/25 03:03:12;;;;;;;21.67;16.83;;;;;;;12.38;100.00;98398.66;4955030;28;20854;-74
2022/04/25 03:05:41;;;;;;;22.13;17.10;;;;;;;12.37;100.00;98404.19;4955252;28;20219;-74
2022/04/25 03:08:08;;;;;;;22.92;17.65;;;;;;;12.41;100.00;98406.50;4955057;28;20190;-75
2022/04/25 03:10:34;;;;;;;20.15;16.85;;;;;;;12.13;100.00;98407.97;4955199;28;20202;-75
2022/04/25 03:13:01;;;;;;;21.50;17.17;;;;;;;11.73;100.00;98405.84;4955299;28;20599;-74
2022/04/25 03:15:28;;;;;;;20.85;17.13;;;;;;;11.80;100.00;98409.78;4954427;28;20208;-75
2022/04/25 03:17:55;;;;;;;24.15;18.40;;;;;;;11.73;100.00;98413.94;4954927;28;20205;-75
2022/04/25 03:20:21;;;;;;;19.58;17.27;;;;;;;11.68;100.00;98406.22;4954712;28;20189;-76
2022/04/25 03:22:49;;;;;;;19.55;17.00;;;;;;;11.59;100.00;98409.66;4939249;28;20328;-74
2022/04/25 03:25:16;;;;;;;19.08;16.80;;;;;;;11.62;100.00;98412.13;4944509;29;20208;-75
2022/04/25 03:27:43;;;;;;;21.48;18.00;;;;;;;11.48;100.00;98402.44;4955155;28;20193;-75
2022/04/25 03:30:10;;;;;;;21.15;17.80;;;;;;;11.55;100.00;98413.56;4955052;28;20219;-75
2022/04/25 03:32:37;;;;;;;24.00;18.50;;;;;;;11.72;100.00;98406.81;4955256;28;20201;-74
2022/04/25 03:35:04;;;;;;;21.75;18.70;;;;;;;11.62;100.00;98419.34;4955134;28;20239;-76
2022/04/25 03:37:31;;;;;;;20.35;17.58;;;;;;;11.45;100.00;98412.63;4954381;28;20207;-74
2022/04/25 03:40:00;;;;;;;22.23;18.02;;;;;;;11.21;100.00;98418.97;4954949;28;20243;-73
2022/04/25 03:42:26;;;;;;;21.50;18.73;;;;;;;11.33;100.00;98411.78;4954732;28;20224;-75
2022/04/25 03:44:54;;;;;;;18.95;16.95;;;;;;;11.34;100.00;98413.47;4952668;28;20248;-75
2022/04/25 03:47:20;;;;;;;22.33;19.17;;;;;;;11.57;100.00;98411.63;4954732;28;20193;-76
2022/04/25 03:49:47;;;;;;;22.00;18.90;;;;;;;11.65;100.00;98424.50;4954506;28;20529;-74
2022/04/25 03:52:13;;;;;;;19.45;17.33;;;;;;;11.72;100.00;98406.81;4954580;28;20185;-77
2022/04/25 03:57:25;;;;;;;21.70;17.63;;;;;;;11.88;100.00;98390.28;4954306;29;20191;-75
2022/04/25 03:59:52;;;;;;;20.70;18.00;;;;;;;11.83;100.00;98389.78;4953549;28;20193;-75
2022/04/25 04:02:18;;;;;;;23.83;18.83;;;;;;;11.67;100.00;98395.56;4954435;28;20284;-75
2022/04/25 04:04:45;;;;;;;22.17;17.83;;;;;;;11.64;100.00;98403.88;4953916;28;20224;-75
2022/04/25 04:07:11;;;;;;;22.95;18.63;;;;;;;11.25;100.00;98403.44;4935656;28;20205;-75
2022/04/25 04:09:47;;;;;;;25.77;18.88;;;;;;;10.77;100.00;98412.56;4953839;28;20195;-75
2022/04/25 04:12:14;;;;;;;24.50;19.33;;;;;;;11.06;100.00;98417.53;4953725;28;20255;-75
2022/04/25 04:14:43;;;;;;;24.27;19.25;;;;;;;11.07;100.00;98420.06;4953241;28;20189;-76
2022/04/25 04:17:10;;;;;;;23.30;19.67;;;;;;;11.19;100.00;98425.47;4952678;28;20224;-75
2022/04/25 04:19:38;;;;;;;24.15;19.77;;;;;;;11.35;100.00;98423.28;4954018;28;20622;-75
2022/04/25 04:22:05;;;;;;;23.88;19.05;;;;;;;11.34;100.00;98416.16;4953996;28;20289;-75
2022/04/25 04:24:34;;;;;;;24.90;19.15;;;;;;;11.29;100.00;98422.94;4958692;28;20211;-73
2022/04/25 04:27:01;;;;;;;22.15;18.02;;;;;;;11.38;100.00;98433.81;4964980;28;20200;-75
2022/04/25 04:29:29;;;;;;;24.10;20.45;;;;;;;11.58;100.00;98428.69;4953248;28;20284;-76
2022/04/25 04:31:58;;;;;;;23.25;18.50;;;;;;;11.57;100.00;98426.94;4953576;28;20232;-76
2022/04/25 04:34:24;;;;;;;25.33;19.63;;;;;;;11.61;100.00;98434.66;4953504;28;20551;-75
2022/04/25 04:36:51;;;;;;;22.13;19.13;;;;;;;11.67;100.00;98438.72;4953826;28;20188;-74
2022/04/25 04:39:18;;;;;;;25.40;19.88;;;;;;;11.85;100.00;98431.81;4953395;28;20208;-74
2022/04/25 04:41:45;;;;;;;22.13;19.10;;;;;;;12.04;100.00;98441.13;4953669;28;20628;-74
2022/04/25 04:44:11;;;;;;;22.15;18.58;;;;;;;12.04;100.00;98435.72;4953577;28;20191;-74
2022/04/25 04:46:38;;;;;;;21.92;18.70;;;;;;;12.08;100.00;98431.78;4953738;28;20200;-76
2022/04/25 04:49:06;;;;;;;20.33;16.85;;;;;;;11.92;100.00;98436.72;4953176;28;20204;-73
2022/04/25 04:51:33;;;;;;;19.70;16.13;;;;;;;11.89;100.00;98446.81;4953352;28;20204;-74
2022/04/25 04:54:00;;;;;;;19.35;15.35;;;;;;;11.88;100.00;98447.75;4953010;28;20189;-74
2022/04/25 04:56:26;;;;;;;18.00;14.32;;;;;;;11.79;100.00;98440.41;4952878;28;20200;-74
2022/04/25 04:58:53;;;;;;;19.50;15.80;;;;;;;11.69;100.00;98439.44;4943603;28;20897;-76
2022/04/25 05:01:20;;;;;;;19.77;16.30;;;;;;;11.69;100.00;98445.69;4935276;29;20204;-75
2022/04/25 05:03:46;;;;;;;18.83;15.35;;;;;;;11.73;100.00;98440.03;4934097;29;20190;-74
2022/04/25 05:06:14;;;;;;;20.25;17.30;;;;;;;11.86;100.00;98448.84;4950516;29;20220;-75
2022/04/25 05:08:41;;;;;;;21.75;16.50;;;;;;;11.92;100.00;98443.00;4953184;28;20207;-75
2022/04/25 05:11:09;;;;;;;21.20;17.45;;;;;;;12.00;100.00;98451.28;4943569;28;20193;-76
2022/04/25 05:13:36;;;;;;;19.63;16.33;;;;;;;11.95;100.00;98447.28;4948635;29;20200;-76
2022/04/25 05:16:03;;;;;;;24.63;20.77;;;;;;;11.80;100.00;98455.63;4939748;28;20237;-76
2022/04/25 05:18:32;;;;;;;21.75;17.80;;;;;;;11.89;100.00;98467.50;4934522;29;20216;-76
2022/04/25 05:20:58;;;;;;;24.08;18.48;;;;;;;11.89;100.00;98465.69;4942704;29;20216;-77
2022/04/25 05:23:27;;;;;;;25.05;20.27;;;;;;;11.89;100.00;98462.97;4945790;29;20185;-76
2022/04/25 05:25:54;;;;;;;27.15;19.85;;;;;;;11.79;100.00;98459.28;4949924;28;20228;-75
2022/04/25 05:28:21;;;;;;;25.38;18.35;;;;;;;11.87;100.00;98466.72;4946072;29;20213;-76
2022/04/25 05:30:48;;;;;;;23.23;18.45;;;;;;;11.93;100.00;98470.81;4951540;29;20631;-75
2022/04/25 05:33:17;;;;;;;27.40;18.90;;;;;;;11.80;100.00;98468.22;4956810;28;20204;-75
2022/04/25 05:35:44;;;;;;;26.85;19.95;;;;;;;12.02;100.00;98476.31;4956349;28;20189;-75
2022/04/25 05:38:12;;;;;;;26.77;18.90;;;;;;;12.24;100.00;98470.00;4956373;28;20205;-75
2022/04/25 05:40:40;;;;;;;24.75;18.95;;;;;;;12.26;100.00;98470.72;4956361;28;20650;-75
2022/04/25 05:43:08;;;;;;;29.05;19.55;;;;;;;12.29;100.00;98470.47;4955764;28;20199;-75
2022/04/25 05:45:35;;;;;;;27.02;19.33;;;;;;;12.31;100.00;98476.59;4955874;28;20229;-75
2022/04/25 05:51:58;;;;;;;26.58;20.50;;;;;;;12.46;100.00;98474.47;4951967;28;20274;-76
2022/04/25 05:53:33;;;;;;;22.30;18.38;;;;;;;12.57;100.00;98483.50;4956211;29;20240;-76
2022/04/25 05:56:01;;;;;;;25.17;18.17;;;;;;;12.70;100.00;98493.13;4955803;28;20296;-74
2022/04/25 05:58:28;;;;;;;24.67;19.80;;;;;;;12.88;100.00;98496.13;4957040;28;20197;-75
2022/04/25 06:00:55;;;;;;;24.15;18.38;;;;;;;12.60;100.00;98496.75;4937485;29;20563;-76
2022/04/25 06:03:21;;;;;;;23.80;18.40;;;;;;;12.33;100.00;98500.78;4940939;29;20186;-75
2022/04/25 06:05:48;;;;;;;21.38;17.08;;;;;;;12.39;100.00;98502.09;4955849;28;20231;-74
2022/04/25 06:08:15;;;;;;;22.15;17.80;;;;;;;12.57;100.00;98507.81;4953429;28;20290;-76
2022/04/25 06:10:42;;;;;;;22.88;18.05;;;;;;;12.59;100.00;98505.84;4954233;29;20189;-76
2022/04/25 06:13:10;;;;;;;20.95;17.00;;;;;;;12.88;100.00;98503.38;4955752;28;20664;-76
2022/04/25 06:15:39;;;;;;;21.08;17.10;;;;;;;12.92;100.00;98502.97;4942353;28;20294;-78
2022/04/25 06:18:06;;;;;;;24.10;18.00;;;;;;;12.85;100.00;98500.94;4936127;29;20206;-76
2022/04/25 06:20:32;;;;;;;20.65;17.65;;;;;;;13.06;100.00;98509.91;4936559;29;20201;-75
2022/04/25 06:23:02;;;;;;;21.48;17.00;;;;;;;13.25;100.00;98511.91;4936262;29;20192;-76
2022/04/25 06:25:30;;;;;;;20.17;17.80;;;;;;;13.22;100.00;98511.28;4950384;29;20686;-73
2022/04/25 06:27:58;;;;;;;19.20;16.67;;;;;;;13.19;100.00;98516.97;4955352;28;20774;-77
2022/04/25 06:30:28;;;;;;;19.17;16.42;;;;;;;13.02;100.00;98513.84;4952219;29;20233;-75
2022/04/25 06:32:55;;;;;;;24.13;18.20;;;;;;;13.14;100.00;98523.63;4955526;28;20285;-76
2022/04/25 06:35:22;;;;;;;21.92;17.60;;;;;;;13.17;100.00;98530.63;4955465;29;20207;-76
2022/04/25 06:37:49;;;;;;;29.13;18.85;;;;;;;13.42;100.00;98525.81;4954352;28;20186;-75
2022/04/25 06:40:16;;;;;;;23.30;19.05;;;;;;;13.53;100.00;98531.16;4955287;29;20202;-76
2022/04/25 06:42:43;;;;;;;23.33;17.40;;;;;;;13.51;100.00;98527.72;4955064;29;20205;-75
2022/04/25 06:45:10;;;;;;;19.00;15.82;;;;;;;13.50;100.00;98524.16;4954955;29;20221;-74
2022/04/25 06:47:38;;;;;;;23.98;18.40;;;;;;;13.59;100.00;98518.94;4955351;29;20191;-75
2022/04/25 06:50:05;;;;;;;20.25;16.80;;;;;;;13.69;100.00;98526.09;4955200;29;20218;-75
2022/04/25 06:52:33;;;;;;;18.10;15.05;;;;;;;13.76;100.00;98524.56;4955181;29;20182;-76
2022/04/25 06:54:59;;;;;;;19.13;15.63;;;;;;;13.88;100.00;98521.78;4955152;29;20640;-75
2022/04/25 06:57:26;;;;;;;19.65;16.80;;;;;;;14.08;100.00;98514.59;4954703;29;20259;-75
2022/04/25 06:59:53;;;;;;;27.38;19.70;;;;;;;14.39;100.00;98513.53;4954847;29;20665;-75
2022/04/25 07:02:19;;;;;;;20.40;17.52;;;;;;;14.62;100.00;98509.75;4953232;29;20449;-75
2022/04/25 07:04:47;;;;;;;19.92;16.10;;;;;;;14.79;100.00;98512.59;4954519;28;20211;-76
2022/04/25 07:07:15;;;;;;;19.88;17.35;;;;;;;15.10;100.00;98514.28;4954477;29;20218;-75
2022/04/25 07:09:41;;;;;;;20.30;17.10;;;;;;;15.21;100.00;98523.13;4954420;29;20196;-74
2022/04/25 07:12:09;;;;;;;19.50;16.58;;;;;;;15.47;100.00;98525.22;4954971;29;20655;-76
2022/04/25 07:14:35;;;;;;;21.50;17.20;;;;;;;15.43;100.00;98526.53;4954504;29;20631;-75
2022/04/25 07:17:03;;;;;;;20.58;17.08;;;;;;;15.38;100.00;98529.66;4954109;29;20246;-76
2022/04/25 07:19:30;;;;;;;20.20;18.00;;;;;;;15.19;100.00;98533.25;4954027;29;20195;-75
2022/04/25 07:30:10;;;;;;;19.42;15.38;;;;;;;15.38;100.00;98526.13;4953735;29;20604;-75
2022/04/25 07:32:40;;;;;;;22.05;18.05;;;;;;;15.36;100.00;98528.09;4953461;29;20189;-75
2022/04/25 07:35:08;;;;;;;22.73;18.73;;;;;;;15.26;99.31;98527.25;4953898;29;20196;-76
2022/04/25 07:37:36;;;;;;;18.80;16.45;;;;;;;15.43;98.25;98534.66;4954687;28;20674;-74
2022/04/25 07:40:06;;;;;;;21.35;17.38;;;;;;;15.23;97.54;98522.97;4954101;28;20559;-75
2022/04/25 07:42:33;;;;;;;20.73;17.52;;;;;;;15.24;99.79;98532.84;4954141;28;20223;-76
2022/04/25 07:45:00;;;;;;;18.65;16.30;;;;;;;15.39;100.00;98533.22;4953989;28;20200;-76
2022/04/25 07:47:26;;;;;;;17.67;15.75;;;;;;;15.09;100.00;98527.00;4954040;29;20664;-75
2022/04/25 07:49:53;;;;;;;20.23;16.30;;;;;;;14.67;100.00;98534.53;4953929;28;20188;-75
2022/04/25 07:52:20;;;;;;;18.35;15.48;;;;;;;14.95;100.00;98541.84;4954131;29;20205;-75
2022/04/25 07:54:48;;;;;;;18.13;16.02;;;;;;;14.72;100.00;98541.25;4953745;29;20200;-76
2022/04/25 07:57:15;;;;;;;20.33;17.23;;;;;;;14.66;100.00;98533.69;4953383;29;20229;-77
2022/04/25 07:59:41;;;;;;;21.17;16.30;;;;;;;14.04;100.00;98553.75;4953592;29;20215;-76
2022/04/25 08:02:09;;;;;;;19.90;16.73;;;;;;;13.95;100.00;98540.06;4953942;29;20192;-75
2022/04/25 08:04:36;;;;;;;16.10;14.38;;;;;;;13.71;100.00;98551.19;4953648;29;20192;-74
2022/04/25 08:07:02;;;;;;;19.50;16.65;;;;;;;13.87;100.00;98553.38;4953376;29;20224;-76
2022/04/25 08:09:29;;;;;;;20.10;16.30;;;;;;;13.34;100.00;98557.09;4953835;29;20188;-76
2022/04/25 08:20:06;;;;;;;18.92;16.08;;;;;;;13.18;100.00;98572.00;4954219;29;20190;-76
2022/04/25 08:22:33;;;;;;;18.90;15.60;;;;;;;13.43;100.00;98571.66;4954132;29;20271;-75
2022/04/25 08:25:01;;;;;;;19.15;14.88;;;;;;;13.81;100.00;98578.28;4953923;29;20238;-75
2022/04/25 08:27:29;;;;;;;20.77;15.50;;;;;;;13.83;100.00;98570.88;4953762;28;20232;-77
2022/04/25 08:29:55;;;;;;;20.00;17.05;;;;;;;14.30;100.00;98576.63;4953571;28;20282;-74
2022/04/25 08:32:22;;;;;;;21.25;16.33;;;;;;;14.70;100.00;98583.91;4953753;29;20224;-76
2022/04/25 08:34:48;;;;;;;18.13;15.77;;;;;;;14.56;100.00;98582.44;4953713;29;20207;-75
2022/04/25 08:37:16;;;;;;;20.30;16.00;;;;;;;14.64;100.00;98595.28;4953997;29;20187;-76
2022/04/25 08:39:42;;;;;;;20.65;16.73;;;;;;;14.89;100.00;98584.91;4954081;29;20220;-76
2022/04/25 08:42:09;;;;;;;20.98;17.25;;;;;;;14.67;100.00;98592.28;4953752;29;20194;-77
2022/04/25 08:44:38;;;;;;;18.85;16.80;;;;;;;15.26;100.00;98595.03;4953850;29;20184;-76
2022/04/25 08:47:09;;;;;;;20.00;15.27;;;;;;;15.53;97.43;98592.44;4954120;29;20228;-75
2022/04/25 08:49:36;;;;;;;16.63;13.68;;;;;;;15.39;96.31;98599.16;4953798;29;20180;-76
2022/04/25 08:52:04;;;;;;;20.40;16.58;;;;;;;15.31;98.40;98598.19;4953096;29;20189;-76
2022/04/25 08:54:32;;;;;;;18.10;14.38;;;;;;;15.28;96.39;98593.91;4954564;29;20655;-75
2022/04/25 08:57:00;;;;;;;16.77;14.50;;;;;;;15.04;97.33;98597.06;4954315;29;20213;-77
2022/04/25 08:59:27;;;;;;;15.77;14.13;;;;;;;15.01;97.67;98600.91;4953938;29;20195;-77
2022/04/25 09:01:55;;;;;;;18.60;15.63;;;;;;;15.17;99.44;98607.59;4957648;28;20204;-82
2022/04/25 09:04:22;;;;;;;20.48;16.77;;;;;;;14.89;100.00;98614.72;4958180;28;20273;-84
2022/04/25 09:06:51;;;;;;;20.60;17.40;;;;;;;14.94;100.00;98617.88;4957937;29;20230;-83
2022/04/25 09:09:17;;;;;;;22.15;16.35;;;;;;;15.21;97.73;98617.16;4958041;28;20296;-83
2022/04/25 09:14:28;;;;;;;18.23;15.90;;;;;;;15.48;93.79;98605.59;4958005;29;20647;-83
2022/04/25 09:16:57;;;;;;;20.52;17.83;;;;;;;15.19;95.62;98603.75;4957829;29;20237;-82
2022/04/25 09:19:24;;;;;;;19.20;16.98;;;;;;;15.14;97.59;98607.91;4957679;28;20193;-82
2022/04/25 09:21:50;;;;;;;22.77;18.83;;;;;;;15.43;95.97;98613.31;4957484;29;20208;-82
2022/04/25 09:24:21;;;;;;;23.00;16.98;;;;;;;16.00;92.68;98607.94;4957779;29;20283;-83
2022/04/25 09:26:50;;;;;;;20.10;17.38;;;;;;;15.92;89.45;98615.97;4957720;29;20217;-83
2022/04/25 09:29:25;;;;;;;17.35;15.52;;;;;;;16.60;84.72;98621.16;4957144;28;20201;-82
2022/04/25 09:31:51;;;;;;;17.30;15.60;;;;;;;17.08;82.29;98617.28;4956354;28;20204;-83
2022/04/25 09:34:59;;;;;;;18.58;16.20;;;;;;;17.62;77.60;98617.25;4956244;29;20194;-82
2022/04/25 09:37:06;;;;;;;16.88;15.15;;;;;;;17.04;80.84;98624.03;4956043;29;20264;-82
2022/04/25 09:39:33;;;;;;;19.90;17.80;;;;;;;16.19;84.18;98621.47;4956349;29;20202;-82
2022/04/25 09:42:00;;;;;;;19.02;16.95;;;;;;;15.69;87.94;98626.28;4956341;29;20542;-81
2022/04/25 09:44:27;;;;;;;21.52;17.52;;;;;;;15.28;91.94;98628.31;4956226;29;20647;-82
2022/04/25 09:46:54;;;;;;;19.60;17.58;;;;;;;15.57;92.37;98628.28;4956240;29;20204;-82
2022/04/25 09:49:22;;;;;;;22.50;18.52;;;;;;;16.05;90.99;98627.34;4956016;29;20679;-83
2022/04/25 09:52:01;;;;;;;19.73;17.13;;;;;;;15.34;94.17;98630.44;4956157;29;20303;-82
2022/04/25 09:54:28;;;;;;;20.52;18.20;;;;;;;14.93;100.00;98630.56;4955974;28;20239;-82
2022/04/25 09:56:55;;;;;;;19.55;17.42;;;;;;;14.63;100.00;98642.34;4955894;29;20200;-82
2022/04/25 09:59:22;;;;;;;22.45;19.67;;;;;;;14.35;100.00;98636.63;4955960;28;20296;-82
2022/04/25 10:02:04;;;;;;;26.63;20.13;;;;;;;14.48;100.00;98639.13;4956468;29;20329;-82
2022/04/25 10:04:33;;;;;;;24.17;19.80;;;;;;;14.77;100.00;98639.25;4955901;29;20649;-82
2022/04/25 10:07:01;;;;;;;22.90;20.50;;;;;;;15.22;99.60;98641.44;4955487;29;20212;-82
2022/04/25 10:09:31;;;;;;;19.95;17.77;;;;;;;15.60;91.74;98641.56;4955976;28;20196;-83
2022/04/25 10:12:00;;;;;;;23.17;19.70;;;;;;;15.20;94.96;98643.44;4954650;28;20200;-82
2022/04/25 10:14:28;;;;;;;22.73;19.00;;;;;;;14.59;100.00;98655.28;4955359;29;20200;-83
2022/04/25 10:16:56;;;;;;;22.40;19.75;;;;;;;15.18;96.73;98641.88;4955422;29;20232;-83
2022/04/25 10:19:24;;;;;;;23.75;19.73;;;;;;;15.29;94.14;98640.88;4955962;29;20195;-82
2022/04/25 10:21:53;;;;;;;22.13;19.30;;;;;;;15.76;91.67;98646.41;4955359;29;20629;-83
2022/04/25 10:24:20;;;;;;;22.70;19.38;;;;;;;15.83;89.05;98643.00;4955714;28;20212;-83
2022/04/25 10:26:48;;;;;;;20.13;17.50;;;;;;;15.74;86.61;98633.03;4955540;28;20219;-83
2022/04/25 10:29:19;;;;;;;20.58;18.45;;;;;;;16.16;84.04;98638.03;4954468;28;20284;-83
2022/04/25 10:31:49;;;;;;;19.52;17.42;;;;;;;16.63;80.81;98639.84;4954828;28;20283;-83
2022/04/25 10:34:16;;;;;;;20.80;18.48;;;;;;;16.94;77.93;98634.13;4955628;28;20189;-82
2022/04/25 10:36:45;;;;;;;23.73;18.40;;;;;;;16.94;77.21;98643.16;4955439;28;20615;-83
2022/04/25 10:39:14;;;;;;;19.52;17.63;;;;;;;16.68;78.40;98642.97;4955559;28;20185;-83
2022/04/25 10:44:59;;;;;;;21.88;19.48;;;;;;;16.36;80.27;98644.25;4954606;29;20566;-83
2022/04/25 10:47:27;;;;;;;20.45;18.35;;;;;;;17.23;75.84;98642.06;4955208;28;20252;-83
2022/04/25 10:50:06;;;;;;;25.75;21.73;;;;;;;17.85;69.34;98640.25;4954974;28;20308;-82
2022/04/25 10:52:54;;;;;;;21.17;18.80;;;;;;;17.89;65.61;98640.81;4955536;28;20936;-83
2022/04/25 10:55:38;;;;;;;23.83;20.42;;;;;;;17.80;68.10;98648.03;4955267;28;20190;-83
2022/04/25 10:58:12;;;;;;;23.30;20.25;;;;;;;17.77;69.26;98652.94;4954421;28;20534;-83
2022/04/25 11:00:50;;;;;;;23.60;20.38;;;;;;;18.06;68.13;98653.50;4935944;29;20225;-83
2022/04/25 11:03:19;;;;;;;25.40;21.38;;;;;;;17.68;70.21;98652.00;4936101;29;20613;-82
2022/04/25 11:05:47;;;;;;;26.80;23.25;;;;;;;17.91;68.05;98653.25;4936879;29;20630;-83
2022/04/25 11:08:34;;;;;;;21.02;18.85;;;;;;;17.05;70.72;98661.13;4953771;29;20226;-83
2022/04/25 11:11:22;;;;;;;22.02;19.63;;;;;;;17.23;70.15;98667.44;4935620;29;20657;-83
2022/04/25 11:14:12;;;;;;;21.17;18.30;;;;;;;17.15;69.09;98661.88;4949163;29;20250;-84
2022/04/25 11:16:39;;;;;;;23.20;20.67;;;;;;;17.39;69.06;98657.69;4954394;28;20229;-84
2022/04/25 11:19:14;;;;;;;22.20;19.83;;;;;;;17.17;68.64;98650.88;4942648;28;20206;-83
2022/04/25 11:21:47;;;;;;;22.60;20.25;;;;;;;17.82;66.66;98651.47;4937349;29;20194;-83
2022/04/25 11:24:35;;;;;;;21.42;19.13;;;;;;;17.75;62.84;98636.78;4954952;28;20193;-86
2022/04/25 11:27:04;;;;;;;21.90;18.20;;;;;;;17.70;65.84;98641.81;4955104;28;20275;-83
2022/04/25 11:29:31;;;;;;;23.65;19.95;;;;;;;17.71;67.43;98643.53;4955175;28;20261;-83
2022/04/25 11:32:30;;;;;;;22.05;19.65;;;;;;;17.92;64.23;98648.66;4937482;28;20289;-84
2022/04/25 11:35:00;;;;;;;22.77;20.02;;;;;;;17.58;66.73;98638.50;4942955;29;20551;-84
2022/04/25 11:37:28;;;;;;;26.52;21.77;;;;;;;17.60;66.84;98641.91;4953921;28;20190;-80
2022/04/25 11:39:57;;;;;;;22.42;19.48;;;;;;;18.09;65.91;98641.44;4954108;28;20650;-81
2022/04/25 11:42:27;;;;;;;23.55;20.23;;;;;;;18.51;64.00;98641.50;4954252;28;20651;-80
2022/04/25 11:44:55;;;;;;;21.23;18.20;;;;;;;18.67;61.16;98648.06;4953872;28;20194;-79
2022/04/25 11:47:22;;;;;;;22.10;19.60;;;;;;;18.88;58.83;98644.91;4953992;28;20233;-81
2022/04/25 11:49:56;;;;;;;18.80;16.75;;;;;;;19.16;56.54;98650.97;4954034;28;20627;-80